Catlettsburg, KY (41129)

1:47 AM EST en Noviembre 28, 2014 (GMT -0500)
Kenova | Change Station
CLOSE
Current Station
Estación meteorológica personal
Location: Kenova, WV
Altura: 554 ft
Estaciones meteorológicas cercanas

Alt 554 ft 38.40 °N, 82.57 °W | Updated 2 minutes ago

Nieve
Nieve
30.2 ° F
Sensación térmica 24 ° F
N
5.8
Viento Variable Viento desde NNO

Hoy
Alta -- | Baja -- ° F
--% Posibilidad de precipitaciones
Ayer
Alta -- | Baja -- ° F
Precip. -- pul
7:25 AM 5:11 PM
Creciente, 37% visible
Presión 30.37 pul
Visibilidad 6.0 Millas
Nubes Muy nublado 2300 ft
Muy nublado 2700 ft
Nublado 3700 ft
Vientos helados 24 ° F
Punto de rocío 27 ° F
Humedad 87%
Precipitaciones 0.00 pul
Espesor de la nieve No disponible.
UV 0 de una escala de 12
Polen .10 de una escala de 12
Calidad del aire No disponible.
Flu Activity No disponible.
METAR KHTS 280551Z 26008KT 6SM -SN BKN023 BKN027 OVC037 M01/M04 A3035 RMK AO2 SLP283 P0000 60000 T10111044 10000 21011 58003

More Conditions Fewer Conditions

Presión 30.37 pul
Visibilidad 6.0 Millas
Nubes Muy nublado 2300 ft
Muy nublado 2700 ft
Nublado 3700 ft
Vientos helados 24 ° F
Punto de rocío 27 ° F
Humedad 87%
Precipitaciones 0.00 pul
Espesor de la nieve No disponible.
UV 0 de una escala de 12
Polen .10 de una escala de 12
Calidad del aire No disponible.
Flu Activity No disponible.
METAR KHTS 280551Z 26008KT 6SM -SN BKN023 BKN027 OVC037 M01/M04 A3035 RMK AO2 SLP283 P0000 60000 T10111044 10000 21011 58003

More Conditions Fewer Conditions

10-Day Weather Forecast

Almanac

Astronomía

Nov. 28, 2014 Salida Puesta
Hora real
Crepúsculo civil
Crepúsculo náutico
Crepúsculo astronómico
Luna
Horas de luz
Horas de luz
Tomorrow will be .
, % of the Moon is Illuminated

Extremos de hoy

Máximos del estado Bajos del estado

Community

WunderPhotos

Upload Photos

1,774,194 ¡fotos cargadas!

WunderBlogs® & News

Nearby

Calidad del aire

  Calidad del aire Índice AQ Contaminante
Not available.

Grosos de nieve

Estación Profundido Altura

Actividad de terremotos

Ciudad Distance Mag. Tiempo y dato
Magnitud mínima muestra es 2,5.

Temperaturas de aguas costeras

Lugar Temperatura

Estaciones meteorológicas cercanas